sensor_id;sensor_type;location;lat;lon;timestamp;pressure;altitude;pressure_sealevel;temperature
24201;BMP280;2801;50.972;7.856;2023-08-06T00:02:16;96585.09;;;15.74
24201;BMP280;2801;50.972;7.856;2023-08-06T00:04:43;96583.94;;;15.75
24201;BMP280;2801;50.972;7.856;2023-08-06T00:07:10;96582.41;;;15.78
24201;BMP280;2801;50.972;7.856;2023-08-06T00:09:37;96584.72;;;15.76
24201;BMP280;2801;50.972;7.856;2023-08-06T00:12:04;96583.19;;;15.78
24201;BMP280;2801;50.972;7.856;2023-08-06T00:14:31;96582.81;;;15.80
24201;BMP280;2801;50.972;7.856;2023-08-06T00:16:58;96569.69;;;15.75
24201;BMP280;2801;50.972;7.856;2023-08-06T00:19:26;96568.13;;;15.74
24201;BMP280;2801;50.972;7.856;2023-08-06T00:21:53;96564.59;;;15.66
24201;BMP280;2801;50.972;7.856;2023-08-06T00:24:20;96553.81;;;15.66
24201;BMP280;2801;50.972;7.856;2023-08-06T00:26:47;96563.06;;;15.65
24201;BMP280;2801;50.972;7.856;2023-08-06T00:29:14;96558.78;;;15.64
24201;BMP280;2801;50.972;7.856;2023-08-06T00:31:41;96556.88;;;15.61
24201;BMP280;2801;50.972;7.856;2023-08-06T00:34:08;96544.13;;;15.62
24201;BMP280;2801;50.972;7.856;2023-08-06T00:36:35;96549.16;;;15.63
24201;BMP280;2801;50.972;7.856;2023-08-06T00:39:02;96536.78;;;15.62
24201;BMP280;2801;50.972;7.856;2023-08-06T00:41:29;96537.16;;;15.61
24201;BMP280;2801;50.972;7.856;2023-08-06T00:43:56;96535.97;;;15.55
24201;BMP280;2801;50.972;7.856;2023-08-06T00:46:23;96529.00;;;15.50
24201;BMP280;2801;50.972;7.856;2023-08-06T00:48:51;96536.69;;;15.45
24201;BMP280;2801;50.972;7.856;2023-08-06T00:51:19;96541.34;;;15.48
24201;BMP280;2801;50.972;7.856;2023-08-06T00:53:47;96537.81;;;15.44
24201;BMP280;2801;50.972;7.856;2023-08-06T00:56:15;96543.63;;;15.42
24201;BMP280;2801;50.972;7.856;2023-08-06T00:58:42;96541.66;;;15.39
24201;BMP280;2801;50.972;7.856;2023-08-06T01:01:09;96532.78;;;15.35
24201;BMP280;2801;50.972;7.856;2023-08-06T01:03:36;96535.47;;;15.35
24201;BMP280;2801;50.972;7.856;2023-08-06T01:06:04;96518.41;;;15.28
24201;BMP280;2801;50.972;7.856;2023-08-06T01:11:52;96531.25;;;15.38
24201;BMP280;2801;50.972;7.856;2023-08-06T01:16:59;96521.59;;;15.40
24201;BMP280;2801;50.972;7.856;2023-08-06T01:19:27;96514.66;;;15.43
24201;BMP280;2801;50.972;7.856;2023-08-06T01:21:53;96509.69;;;15.45
24201;BMP280;2801;50.972;7.856;2023-08-06T01:24:21;96508.53;;;15.46
24201;BMP280;2801;50.972;7.856;2023-08-06T01:27:06;96518.22;;;15.50
24201;BMP280;2801;50.972;7.856;2023-08-06T01:32:43;96505.03;;;15.45
24201;BMP280;2801;50.972;7.856;2023-08-06T01:35:14;96503.91;;;15.50
24201;BMP280;2801;50.972;7.856;2023-08-06T01:37:43;96506.25;;;15.55
24201;BMP280;2801;50.972;7.856;2023-08-06T01:40:11;96501.63;;;15.55
24201;BMP280;2801;50.972;7.856;2023-08-06T01:42:39;96497.78;;;15.53
24201;BMP280;2801;50.972;7.856;2023-08-06T01:45:08;96502.38;;;15.52
24201;BMP280;2801;50.972;7.856;2023-08-06T01:47:36;96495.03;;;15.49
24201;BMP280;2801;50.972;7.856;2023-08-06T01:50:03;96499.69;;;15.52
24201;BMP280;2801;50.972;7.856;2023-08-06T01:52:30;96501.22;;;15.53
24201;BMP280;2801;50.972;7.856;2023-08-06T01:54:57;96493.53;;;15.55
24201;BMP280;2801;50.972;7.856;2023-08-06T01:57:24;96500.88;;;15.58
24201;BMP280;2801;50.972;7.856;2023-08-06T01:59:51;96498.56;;;15.60
24201;BMP280;2801;50.972;7.856;2023-08-06T02:02:18;96499.72;;;15.59
24201;BMP280;2801;50.972;7.856;2023-08-06T02:04:45;96499.75;;;15.63
24201;BMP280;2801;50.972;7.856;2023-08-06T02:07:12;96501.69;;;15.62
24201;BMP280;2801;50.972;7.856;2023-08-06T02:09:39;96502.84;;;15.61
24201;BMP280;2801;50.972;7.856;2023-08-06T02:12:07;96492.41;;;15.60
24201;BMP280;2801;50.972;7.856;2023-08-06T02:14:34;96496.66;;;15.57
24201;BMP280;2801;50.972;7.856;2023-08-06T02:17:01;96493.56;;;15.62
24201;BMP280;2801;50.972;7.856;2023-08-06T02:19:28;96488.97;;;15.63
24201;BMP280;2801;50.972;7.856;2023-08-06T02:21:55;96481.63;;;15.67
24201;BMP280;2801;50.972;7.856;2023-08-06T02:24:22;96485.09;;;15.67
24201;BMP280;2801;50.972;7.856;2023-08-06T02:26:49;96472.38;;;15.68
24201;BMP280;2801;50.972;7.856;2023-08-06T02:29:18;96473.13;;;15.68
24201;BMP280;2801;50.972;7.856;2023-08-06T02:31:45;96470.84;;;15.67
24201;BMP280;2801;50.972;7.856;2023-08-06T02:34:12;96470.06;;;15.70
24201;BMP280;2801;50.972;7.856;2023-08-06T02:36:39;96460.41;;;15.65
24201;BMP280;2801;50.972;7.856;2023-08-06T02:39:06;96460.38;;;15.62
24201;BMP280;2801;50.972;7.856;2023-08-06T02:41:33;96452.69;;;15.64
24201;BMP280;2801;50.972;7.856;2023-08-06T02:44:00;96454.59;;;15.63
24201;BMP280;2801;50.972;7.856;2023-08-06T02:46:27;96447.66;;;15.62
24201;BMP280;2801;50.972;7.856;2023-08-06T02:48:54;96448.44;;;15.66
24201;BMP280;2801;50.972;7.856;2023-08-06T02:51:21;96434.94;;;15.66
24201;BMP280;2801;50.972;7.856;2023-08-06T02:53:48;96436.88;;;15.69
24201;BMP280;2801;50.972;7.856;2023-08-06T02:56:16;96436.47;;;15.67
24201;BMP280;2801;50.972;7.856;2023-08-06T02:58:43;96433.78;;;15.67
24201;BMP280;2801;50.972;7.856;2023-08-06T03:01:10;96434.56;;;15.68
24201;BMP280;2801;50.972;7.856;2023-08-06T03:03:37;96432.22;;;15.70
24201;BMP280;2801;50.972;7.856;2023-08-06T03:06:04;96423.38;;;15.69
24201;BMP280;2801;50.972;7.856;2023-08-06T03:08:31;96404.03;;;15.57
24201;BMP280;2801;50.972;7.856;2023-08-06T03:10:58;96417.56;;;15.67
24201;BMP280;2801;50.972;7.856;2023-08-06T03:13:25;96411.78;;;15.69
24201;BMP280;2801;50.972;7.856;2023-08-06T03:15:58;96414.09;;;15.70
24201;BMP280;2801;50.972;7.856;2023-08-06T03:18:25;96416.03;;;15.66
24201;BMP280;2801;50.972;7.856;2023-08-06T03:20:53;96417.94;;;15.66
24201;BMP280;2801;50.972;7.856;2023-08-06T03:23:21;96417.56;;;15.64
24201;BMP280;2801;50.972;7.856;2023-08-06T03:25:48;96416.41;;;15.61
24201;BMP280;2801;50.972;7.856;2023-08-06T03:28:15;96419.44;;;15.56
24201;BMP280;2801;50.972;7.856;2023-08-06T03:30:42;96414.78;;;15.50
24201;BMP280;2801;50.972;7.856;2023-08-06T03:33:09;96422.09;;;15.46
24201;BMP280;2801;50.972;7.856;2023-08-06T03:35:35;96412.06;;;15.39
24201;BMP280;2801;50.972;7.856;2023-08-06T03:38:02;96410.81;;;15.33
24201;BMP280;2801;50.972;7.856;2023-08-06T03:40:29;96406.63;;;15.36
24201;BMP280;2801;50.972;7.856;2023-08-06T03:42:56;96403.88;;;15.32
24201;BMP280;2801;50.972;7.856;2023-08-06T03:45:23;96405.41;;;15.33
24201;BMP280;2801;50.972;7.856;2023-08-06T03:47:50;96410.06;;;15.33
24201;BMP280;2801;50.972;7.856;2023-08-06T03:50:17;96404.25;;;15.34
24201;BMP280;2801;50.972;7.856;2023-08-06T03:52:44;96403.16;;;15.35
24201;BMP280;2801;50.972;7.856;2023-08-06T03:55:11;96388.06;;;15.34
24201;BMP280;2801;50.972;7.856;2023-08-06T03:57:38;96393.91;;;15.36
24201;BMP280;2801;50.972;7.856;2023-08-06T04:00:06;96398.16;;;15.41
24201;BMP280;2801;50.972;7.856;2023-08-06T04:02:33;96390.84;;;15.45
24201;BMP280;2801;50.972;7.856;2023-08-06T04:05:01;96380.44;;;15.47
24201;BMP280;2801;50.972;7.856;2023-08-06T04:07:28;96380.47;;;15.50
24201;BMP280;2801;50.972;7.856;2023-08-06T04:09:58;96384.69;;;15.51
24201;BMP280;2801;50.972;7.856;2023-08-06T04:12:26;96396.25;;;15.48
24201;BMP280;2801;50.972;7.856;2023-08-06T04:14:54;96385.06;;;15.43
24201;BMP280;2801;50.972;7.856;2023-08-06T04:17:22;96385.41;;;15.38
24201;BMP280;2801;50.972;7.856;2023-08-06T04:19:53;96387.28;;;15.30
24201;BMP280;2801;50.972;7.856;2023-08-06T04:22:21;96381.06;;;15.23
24201;BMP280;2801;50.972;7.856;2023-08-06T04:24:48;96382.19;;;15.15
24201;BMP280;2801;50.972;7.856;2023-08-06T04:27:17;96374.44;;;15.03
24201;BMP280;2801;50.972;7.856;2023-08-06T04:29:44;96376.34;;;15.02
24201;BMP280;2801;50.972;7.856;2023-08-06T04:32:12;96377.47;;;14.98
24201;BMP280;2801;50.972;7.856;2023-08-06T04:34:39;96374.81;;;15.01
24201;BMP280;2801;50.972;7.856;2023-08-06T04:37:07;96376.72;;;15.01
24201;BMP280;2801;50.972;7.856;2023-08-06T04:39:34;96370.16;;;14.98
24201;BMP280;2801;50.972;7.856;2023-08-06T04:42:00;96368.63;;;15.01
24201;BMP280;2801;50.972;7.856;2023-08-06T04:44:27;96369.41;;;15.01
24201;BMP280;2801;50.972;7.856;2023-08-06T04:46:54;96375.19;;;15.03
24201;BMP280;2801;50.972;7.856;2023-08-06T04:49:22;96378.28;;;15.05
24201;BMP280;2801;50.972;7.856;2023-08-06T04:51:49;96377.53;;;15.08
24201;BMP280;2801;50.972;7.856;2023-08-06T04:54:17;96380.63;;;15.10
24201;BMP280;2801;50.972;7.856;2023-08-06T04:56:43;96372.16;;;15.12
24201;BMP280;2801;50.972;7.856;2023-08-06T04:59:10;96369.81;;;15.10
24201;BMP280;2801;50.972;7.856;2023-08-06T05:01:37;96379.13;;;15.20
24201;BMP280;2801;50.972;7.856;2023-08-06T05:04:04;96368.75;;;15.22
24201;BMP280;2801;50.972;7.856;2023-08-06T05:06:31;96381.56;;;15.35
24201;BMP280;2801;50.972;7.856;2023-08-06T05:08:58;96379.69;;;15.46
24201;BMP280;2801;50.972;7.856;2023-08-06T05:11:25;96374.69;;;15.55
24201;BMP280;2801;50.972;7.856;2023-08-06T05:13:52;96378.97;;;15.70
24201;BMP280;2801;50.972;7.856;2023-08-06T05:16:19;96383.28;;;15.89
24201;BMP280;2801;50.972;7.856;2023-08-06T05:18:46;96379.44;;;16.00
24201;BMP280;2801;50.972;7.856;2023-08-06T05:21:13;96382.16;;;16.11
24201;BMP280;2801;50.972;7.856;2023-08-06T05:23:40;96372.13;;;16.15
24201;BMP280;2801;50.972;7.856;2023-08-06T05:26:07;96381.41;;;16.21
24201;BMP280;2801;50.972;7.856;2023-08-06T05:28:34;96362.09;;;16.15
24201;BMP280;2801;50.972;7.856;2023-08-06T05:31:05;96377.53;;;16.22
24201;BMP280;2801;50.972;7.856;2023-08-06T05:33:32;96376.41;;;16.26
24201;BMP280;2801;50.972;7.856;2023-08-06T05:35:58;96377.56;;;16.25
24201;BMP280;2801;50.972;7.856;2023-08-06T05:38:26;96374.06;;;16.28
24201;BMP280;2801;50.972;7.856;2023-08-06T05:40:53;96374.47;;;16.30
24201;BMP280;2801;50.972;7.856;2023-08-06T05:43:20;96374.84;;;16.32
24201;BMP280;2801;50.972;7.856;2023-08-06T05:45:49;96368.28;;;16.30
24201;BMP280;2801;50.972;7.856;2023-08-06T05:48:16;96384.16;;;16.42
24201;BMP280;2801;50.972;7.856;2023-08-06T05:50:44;96385.28;;;16.41
24201;BMP280;2801;50.972;7.856;2023-08-06T05:53:10;96384.50;;;16.37
24201;BMP280;2801;50.972;7.856;2023-08-06T05:55:39;96384.16;;;16.42
24201;BMP280;2801;50.972;7.856;2023-08-06T05:58:06;96375.63;;;16.40
24201;BMP280;2801;50.972;7.856;2023-08-06T06:00:33;96379.88;;;16.37
24201;BMP280;2801;50.972;7.856;2023-08-06T06:03:00;96375.63;;;16.33
24201;BMP280;2801;50.972;7.856;2023-08-06T06:05:26;96382.94;;;16.32
24201;BMP280;2801;50.972;7.856;2023-08-06T06:07:53;96378.34;;;16.29
24201;BMP280;2801;50.972;7.856;2023-08-06T06:10:20;96379.88;;;16.20
24201;BMP280;2801;50.972;7.856;2023-08-06T06:12:47;96390.66;;;16.16
24201;BMP280;2801;50.972;7.856;2023-08-06T06:15:14;96384.09;;;16.14
24201;BMP280;2801;50.972;7.856;2023-08-06T06:17:41;96388.75;;;16.06
24201;BMP280;2801;50.972;7.856;2023-08-06T06:20:09;96382.53;;;15.99
24201;BMP280;2801;50.972;7.856;2023-08-06T06:22:36;96395.25;;;15.98
24201;BMP280;2801;50.972;7.856;2023-08-06T06:25:03;96386.78;;;16.00
24201;BMP280;2801;50.972;7.856;2023-08-06T06:27:30;96396.84;;;15.99
24201;BMP280;2801;50.972;7.856;2023-08-06T06:29:57;96385.63;;;15.94
24201;BMP280;2801;50.972;7.856;2023-08-06T06:32:25;96388.31;;;15.94
24201;BMP280;2801;50.972;7.856;2023-08-06T06:34:52;96395.25;;;15.95
24201;BMP280;2801;50.972;7.856;2023-08-06T06:37:18;96391.78;;;15.94
24201;BMP280;2801;50.972;7.856;2023-08-06T06:39:45;96389.44;;;15.93
24201;BMP280;2801;50.972;7.856;2023-08-06T06:42:12;96388.69;;;15.92
24201;BMP280;2801;50.972;7.856;2023-08-06T06:44:46;96391.41;;;15.96
24201;BMP280;2801;50.972;7.856;2023-08-06T06:47:13;96383.69;;;15.98
24201;BMP280;2801;50.972;7.856;2023-08-06T06:49:40;96386.78;;;15.96
24201;BMP280;2801;50.972;7.856;2023-08-06T06:52:07;96383.31;;;16.03
24201;BMP280;2801;50.972;7.856;2023-08-06T06:54:34;96383.72;;;16.12
24201;BMP280;2801;50.972;7.856;2023-08-06T06:57:01;96378.69;;;16.17
24201;BMP280;2801;50.972;7.856;2023-08-06T06:59:28;96380.63;;;16.27
24201;BMP280;2801;50.972;7.856;2023-08-06T07:01:55;96376.03;;;16.35
24201;BMP280;2801;50.972;7.856;2023-08-06T07:04:22;96376.84;;;16.46
24201;BMP280;2801;50.972;7.856;2023-08-06T07:06:49;96375.66;;;16.50
24201;BMP280;2801;50.972;7.856;2023-08-06T07:09:18;96380.69;;;16.59
24201;BMP280;2801;50.972;7.856;2023-08-06T07:11:45;96377.19;;;16.65
24201;BMP280;2801;50.972;7.856;2023-08-06T07:14:12;96374.09;;;16.67
24201;BMP280;2801;50.972;7.856;2023-08-06T07:16:41;96373.31;;;16.73
24201;BMP280;2801;50.972;7.856;2023-08-06T07:19:08;96378.38;;;16.78
24201;BMP280;2801;50.972;7.856;2023-08-06T07:21:35;96375.66;;;16.71
24201;BMP280;2801;50.972;7.856;2023-08-06T07:24:03;96367.94;;;16.70
24201;BMP280;2801;50.972;7.856;2023-08-06T07:26:30;96374.50;;;16.72
24201;BMP280;2801;50.972;7.856;2023-08-06T07:28:57;96371.00;;;16.72
24201;BMP280;2801;50.972;7.856;2023-08-06T07:31:25;96383.00;;;16.67
24201;BMP280;2801;50.972;7.856;2023-08-06T07:33:52;96375.25;;;16.69
24201;BMP280;2801;50.972;7.856;2023-08-06T07:36:20;96388.41;;;16.64
24201;BMP280;2801;50.972;7.856;2023-08-06T07:38:47;96388.03;;;16.65
24201;BMP280;2801;50.972;7.856;2023-08-06T07:41:18;96379.91;;;16.62
24201;BMP280;2801;50.972;7.856;2023-08-06T07:43:45;96390.34;;;16.53
24201;BMP280;2801;50.972;7.856;2023-08-06T07:46:13;96388.81;;;16.41
24201;BMP280;2801;50.972;7.856;2023-08-06T07:48:40;96386.47;;;16.50
24201;BMP280;2801;50.972;7.856;2023-08-06T07:51:07;96388.81;;;16.59
24201;BMP280;2801;50.972;7.856;2023-08-06T07:53:34;96389.19;;;16.61
24201;BMP280;2801;50.972;7.856;2023-08-06T07:56:01;96384.94;;;16.63
24201;BMP280;2801;50.972;7.856;2023-08-06T07:58:29;96376.81;;;16.74
24201;BMP280;2801;50.972;7.856;2023-08-06T08:00:56;96383.00;;;16.74
24201;BMP280;2801;50.972;7.856;2023-08-06T08:03:23;96376.81;;;16.74
24201;BMP280;2801;50.972;7.856;2023-08-06T08:05:55;96383.78;;;16.85
24201;BMP280;2801;50.972;7.856;2023-08-06T08:08:25;96381.44;;;16.87
24201;BMP280;2801;50.972;7.856;2023-08-06T08:10:52;96379.88;;;16.97
24201;BMP280;2801;50.972;7.856;2023-08-06T08:13:19;96383.34;;;17.04
24201;BMP280;2801;50.972;7.856;2023-08-06T08:15:46;96373.63;;;17.17
24201;BMP280;2801;50.972;7.856;2023-08-06T08:18:13;96379.03;;;17.24
24201;BMP280;2801;50.972;7.856;2023-08-06T08:20:40;96375.53;;;17.24
24201;BMP280;2801;50.972;7.856;2023-08-06T08:23:07;96371.69;;;17.25
24201;BMP280;2801;50.972;7.856;2023-08-06T08:25:34;96372.09;;;17.23
24201;BMP280;2801;50.972;7.856;2023-08-06T08:28:01;96374.78;;;17.30
24201;BMP280;2801;50.972;7.856;2023-08-06T08:30:28;96371.25;;;17.40
24201;BMP280;2801;50.972;7.856;2023-08-06T08:32:55;96374.69;;;17.58
24201;BMP280;2801;50.972;7.856;2023-08-06T08:35:22;96377.69;;;17.78
24201;BMP280;2801;50.972;7.856;2023-08-06T08:37:49;96376.84;;;17.88
24201;BMP280;2801;50.972;7.856;2023-08-06T08:40:17;96362.16;;;17.89
24201;BMP280;2801;50.972;7.856;2023-08-06T08:42:44;96373.72;;;17.96
24201;BMP280;2801;50.972;7.856;2023-08-06T08:45:14;96379.09;;;18.00
24201;BMP280;2801;50.972;7.856;2023-08-06T08:47:42;96380.72;;;17.94
24201;BMP280;2801;50.972;7.856;2023-08-06T08:50:10;96382.38;;;17.74
24201;BMP280;2801;50.972;7.856;2023-08-06T08:52:39;96383.16;;;17.71
24201;BMP280;2801;50.972;7.856;2023-08-06T08:55:08;96379.31;;;17.61
24201;BMP280;2801;50.972;7.856;2023-08-06T08:57:35;96375.44;;;17.62
24201;BMP280;2801;50.972;7.856;2023-08-06T09:00:04;96378.94;;;17.59
24201;BMP280;2801;50.972;7.856;2023-08-06T09:02:33;96377.00;;;17.60
24201;BMP280;2801;50.972;7.856;2023-08-06T09:05:02;96373.16;;;17.57
24201;BMP280;2801;50.972;7.856;2023-08-06T09:07:41;96376.25;;;17.56
24201;BMP280;2801;50.972;7.856;2023-08-06T09:10:12;96376.63;;;17.58
24201;BMP280;2801;50.972;7.856;2023-08-06T09:12:42;96377.00;;;17.60
24201;BMP280;2801;50.972;7.856;2023-08-06T09:15:09;96381.25;;;17.64
24201;BMP280;2801;50.972;7.856;2023-08-06T09:17:37;96382.78;;;17.62
24201;BMP280;2801;50.972;7.856;2023-08-06T09:20:14;96386.69;;;17.54
24201;BMP280;2801;50.972;7.856;2023-08-06T09:22:41;96386.69;;;17.54
24201;BMP280;2801;50.972;7.856;2023-08-06T09:25:08;96392.47;;;17.59
24201;BMP280;2801;50.972;7.856;2023-08-06T09:27:40;96388.53;;;17.74
24201;BMP280;2801;50.972;7.856;2023-08-06T09:30:07;96400.56;;;17.73
24201;BMP280;2801;50.972;7.856;2023-08-06T09:32:48;96397.47;;;17.75
24201;BMP280;2801;50.972;7.856;2023-08-06T09:35:18;96397.44;;;17.82
24201;BMP280;2801;50.972;7.856;2023-08-06T09:37:45;96398.50;;;17.95
24201;BMP280;2801;50.972;7.856;2023-08-06T09:40:31;96401.53;;;18.07
24201;BMP280;2801;50.972;7.856;2023-08-06T09:42:59;96406.91;;;18.18
24201;BMP280;2801;50.972;7.856;2023-08-06T09:45:39;96403.44;;;18.17
24201;BMP280;2801;50.972;7.856;2023-08-06T09:48:09;96400.66;;;18.24
24201;BMP280;2801;50.972;7.856;2023-08-06T09:50:38;96406.50;;;18.23
24201;BMP280;2801;50.972;7.856;2023-08-06T09:53:07;96401.47;;;18.18
24201;BMP280;2801;50.972;7.856;2023-08-06T09:55:36;96400.28;;;18.23
24201;BMP280;2801;50.972;7.856;2023-08-06T09:58:04;96402.56;;;18.27
24201;BMP280;2801;50.972;7.856;2023-08-06T10:00:33;96403.31;;;18.39
24201;BMP280;2801;50.972;7.856;2023-08-06T10:03:07;96396.31;;;18.45
24201;BMP280;2801;50.972;7.856;2023-08-06T10:05:37;96397.31;;;18.65
24201;BMP280;2801;50.972;7.856;2023-08-06T10:08:06;96389.03;;;18.79
24201;BMP280;2801;50.972;7.856;2023-08-06T10:10:35;96397.81;;;18.93
24201;BMP280;2801;50.972;7.856;2023-08-06T10:13:04;96396.56;;;19.05
24201;BMP280;2801;50.972;7.856;2023-08-06T10:15:33;96397.97;;;19.20
24201;BMP280;2801;50.972;7.856;2023-08-06T10:18:02;96400.91;;;19.36
24201;BMP280;2801;50.972;7.856;2023-08-06T10:20:34;96407.13;;;19.36
24201;BMP280;2801;50.972;7.856;2023-08-06T10:23:05;96403.72;;;19.29
24201;BMP280;2801;50.972;7.856;2023-08-06T10:25:35;96401.94;;;19.08
24201;BMP280;2801;50.972;7.856;2023-08-06T10:28:12;96406.47;;;18.81
24201;BMP280;2801;50.972;7.856;2023-08-06T10:30:46;96413.63;;;18.61
24201;BMP280;2801;50.972;7.856;2023-08-06T10:33:14;96403.56;;;18.55
24201;BMP280;2801;50.972;7.856;2023-08-06T10:35:48;96407.91;;;18.45
24201;BMP280;2801;50.972;7.856;2023-08-06T10:38:22;96416.03;;;18.45
24201;BMP280;2801;50.972;7.856;2023-08-06T10:43:37;96413.41;;;18.31
24201;BMP280;2801;50.972;7.856;2023-08-06T10:46:27;96415.75;;;18.29
24201;BMP280;2801;50.972;7.856;2023-08-06T10:48:54;96406.81;;;18.39
24201;BMP280;2801;50.972;7.856;2023-08-06T10:51:21;96403.94;;;18.57
24201;BMP280;2801;50.972;7.856;2023-08-06T10:53:50;96407.66;;;18.80
24201;BMP280;2801;50.972;7.856;2023-08-06T10:56:22;96404.44;;;18.92
24201;BMP280;2801;50.972;7.856;2023-08-06T10:58:54;96408.56;;;19.07
24201;BMP280;2801;50.972;7.856;2023-08-06T11:01:23;96401.03;;;19.25
24201;BMP280;2801;50.972;7.856;2023-08-06T11:03:51;96396.94;;;19.44
24201;BMP280;2801;50.972;7.856;2023-08-06T11:06:21;96398.41;;;19.52
24201;BMP280;2801;50.972;7.856;2023-08-06T11:08:53;96404.94;;;19.58
24201;BMP280;2801;50.972;7.856;2023-08-06T11:11:23;96407.00;;;19.47
24201;BMP280;2801;50.972;7.856;2023-08-06T11:13:52;96402.84;;;19.39
24201;BMP280;2801;50.972;7.856;2023-08-06T11:16:23;96398.69;;;19.24
24201;BMP280;2801;50.972;7.856;2023-08-06T11:18:54;96407.38;;;19.08
24201;BMP280;2801;50.972;7.856;2023-08-06T11:21:23;96400.41;;;19.07
24201;BMP280;2801;50.972;7.856;2023-08-06T11:23:53;96399.94;;;19.16
24201;BMP280;2801;50.972;7.856;2023-08-06T11:26:21;96400.00;;;19.09
24201;BMP280;2801;50.972;7.856;2023-08-06T11:28:49;96409.09;;;18.92
24201;BMP280;2801;50.972;7.856;2023-08-06T11:31:23;96417.72;;;18.83
24201;BMP280;2801;50.972;7.856;2023-08-06T11:33:52;96412.78;;;18.68
24201;BMP280;2801;50.972;7.856;2023-08-06T11:36:41;96406.72;;;18.50
24201;BMP280;2801;50.972;7.856;2023-08-06T11:39:09;96439.38;;;18.36
24201;BMP280;2801;50.972;7.856;2023-08-06T11:41:36;96443.34;;;18.17
24201;BMP280;2801;50.972;7.856;2023-08-06T11:44:11;96448.53;;;17.83
24201;BMP280;2801;50.972;7.856;2023-08-06T11:46:55;96449.00;;;17.54
24201;BMP280;2801;50.972;7.856;2023-08-06T11:50:02;96457.97;;;17.23
24201;BMP280;2801;50.972;7.856;2023-08-06T12:05:16;96492.25;;;16.17
24201;BMP280;2801;50.972;7.856;2023-08-06T12:07:50;96493.78;;;16.15
24201;BMP280;2801;50.972;7.856;2023-08-06T12:10:19;96502.66;;;16.08
24201;BMP280;2801;50.972;7.856;2023-08-06T12:12:47;96509.97;;;16.04
24201;BMP280;2801;50.972;7.856;2023-08-06T12:15:14;96513.44;;;15.98
24201;BMP280;2801;50.972;7.856;2023-08-06T12:17:42;96514.97;;;15.99
24201;BMP280;2801;50.972;7.856;2023-08-06T12:20:10;96522.72;;;16.04
24201;BMP280;2801;50.972;7.856;2023-08-06T12:22:38;96528.09;;;15.97
24201;BMP280;2801;50.972;7.856;2023-08-06T12:25:09;96521.06;;;15.75
24201;BMP280;2801;50.972;7.856;2023-08-06T12:27:40;96537.59;;;15.66
24201;BMP280;2801;50.972;7.856;2023-08-06T12:30:09;96532.88;;;15.56
24201;BMP280;2801;50.972;7.856;2023-08-06T12:32:37;96544.44;;;15.50
24201;BMP280;2801;50.972;7.856;2023-08-06T12:35:05;96539.72;;;15.36
24201;BMP280;2801;50.972;7.856;2023-08-06T12:37:35;96544.66;;;15.31
24201;BMP280;2801;50.972;7.856;2023-08-06T12:40:03;96550.06;;;15.31
24201;BMP280;2801;50.972;7.856;2023-08-06T12:42:50;96553.13;;;15.26
24201;BMP280;2801;50.972;7.856;2023-08-06T12:45:17;96554.66;;;15.27
24201;BMP280;2801;50.972;7.856;2023-08-06T12:47:48;96565.03;;;15.21
24201;BMP280;2801;50.972;7.856;2023-08-06T12:50:16;96572.69;;;15.16
24201;BMP280;2801;50.972;7.856;2023-08-06T12:52:44;96572.31;;;15.17
24201;BMP280;2801;50.972;7.856;2023-08-06T12:55:11;96573.91;;;15.22
24201;BMP280;2801;50.972;7.856;2023-08-06T12:57:38;96582.38;;;15.20
24201;BMP280;2801;50.972;7.856;2023-08-06T13:00:26;96577.72;;;15.17
24201;BMP280;2801;50.972;7.856;2023-08-06T13:02:53;96579.31;;;15.22
24201;BMP280;2801;50.972;7.856;2023-08-06T13:05:20;96580.06;;;15.19
24201;BMP280;2801;50.972;7.856;2023-08-06T13:07:47;96583.50;;;15.19
24201;BMP280;2801;50.972;7.856;2023-08-06T13:10:14;96587.44;;;15.29
24201;BMP280;2801;50.972;7.856;2023-08-06T13:12:41;96592.88;;;15.32
24201;BMP280;2801;50.972;7.856;2023-08-06T13:15:09;96586.31;;;15.30
24201;BMP280;2801;50.972;7.856;2023-08-06T13:17:37;96595.63;;;15.36
24201;BMP280;2801;50.972;7.856;2023-08-06T13:20:05;96590.28;;;15.39
24201;BMP280;2801;50.972;7.856;2023-08-06T13:22:33;96603.41;;;15.44
24201;BMP280;2801;50.972;7.856;2023-08-06T13:25:00;96603.84;;;15.46
24201;BMP280;2801;50.972;7.856;2023-08-06T13:27:27;96603.41;;;15.41
24201;BMP280;2801;50.972;7.856;2023-08-06T13:29:53;96606.94;;;15.48
24201;BMP280;2801;50.972;7.856;2023-08-06T13:32:20;96602.69;;;15.51
24201;BMP280;2801;50.972;7.856;2023-08-06T13:34:47;96611.53;;;15.44
24201;BMP280;2801;50.972;7.856;2023-08-06T13:37:14;96618.84;;;15.44
24201;BMP280;2801;50.972;7.856;2023-08-06T13:39:41;96612.16;;;15.34
24201;BMP280;2801;50.972;7.856;2023-08-06T13:42:08;96623.75;;;15.35
24201;BMP280;2801;50.972;7.856;2023-08-06T13:44:35;96621.06;;;15.35
24201;BMP280;2801;50.972;7.856;2023-08-06T13:47:03;96624.91;;;15.34
24201;BMP280;2801;50.972;7.856;2023-08-06T13:49:30;96626.84;;;15.33
24201;BMP280;2801;50.972;7.856;2023-08-06T13:51:57;96621.41;;;15.30
24201;BMP280;2801;50.972;7.856;2023-08-06T13:54:41;96619.75;;;15.15
24201;BMP280;2801;50.972;7.856;2023-08-06T13:57:08;96626.69;;;15.19
24201;BMP280;2801;50.972;7.856;2023-08-06T13:59:35;96623.63;;;15.21
24201;BMP280;2801;50.972;7.856;2023-08-06T14:02:02;96634.00;;;15.15
24201;BMP280;2801;50.972;7.856;2023-08-06T14:04:30;96632.09;;;15.16
24201;BMP280;2801;50.972;7.856;2023-08-06T14:06:57;96636.75;;;15.19
24201;BMP280;2801;50.972;7.856;2023-08-06T14:09:24;96626.31;;;15.17
24201;BMP280;2801;50.972;7.856;2023-08-06T14:11:51;96630.22;;;15.23
24201;BMP280;2801;50.972;7.856;2023-08-06T14:14:18;96645.28;;;15.24
24201;BMP280;2801;50.972;7.856;2023-08-06T14:16:45;96643.75;;;15.27
24201;BMP280;2801;50.972;7.856;2023-08-06T14:19:12;96646.03;;;15.21
24201;BMP280;2801;50.972;7.856;2023-08-06T14:21:39;96655.63;;;15.19
24201;BMP280;2801;50.972;7.856;2023-08-06T14:24:06;96661.00;;;15.15
24201;BMP280;2801;50.972;7.856;2023-08-06T14:26:33;96649.72;;;15.06
24201;BMP280;2801;50.972;7.856;2023-08-06T14:29:01;96660.16;;;15.08
24201;BMP280;2801;50.972;7.856;2023-08-06T14:31:29;96664.03;;;15.10
24201;BMP280;2801;50.972;7.856;2023-08-06T14:33:56;96661.31;;;15.07
24201;BMP280;2801;50.972;7.856;2023-08-06T14:36:23;96678.31;;;15.11
24201;BMP280;2801;50.972;7.856;2023-08-06T14:38:50;96672.88;;;15.07
24201;BMP280;2801;50.972;7.856;2023-08-06T14:41:26;96670.50;;;15.02
24201;BMP280;2801;50.972;7.856;2023-08-06T14:43:53;96677.44;;;15.03
24201;BMP280;2801;50.972;7.856;2023-08-06T14:46:21;96682.00;;;14.96
24201;BMP280;2801;50.972;7.856;2023-08-06T14:48:48;96683.22;;;15.02
24201;BMP280;2801;50.972;7.856;2023-08-06T14:51:15;96685.16;;;15.01
24201;BMP280;2801;50.972;7.856;2023-08-06T14:53:42;96702.78;;;14.92